createdAt,value
2023-10-29T00:02:26.816Z,100.00
2023-10-29T00:04:57.629Z,100.00
2023-10-29T00:07:28.158Z,100.00
2023-10-29T00:10:01.324Z,100.00
2023-10-29T00:12:31.905Z,100.00
2023-10-29T00:15:02.576Z,100.00
2023-10-29T00:17:33.339Z,100.00
2023-10-29T00:20:07.630Z,100.00
2023-10-29T00:22:38.299Z,100.00
2023-10-29T00:25:12.146Z,100.00
2023-10-29T00:27:42.748Z,100.00
2023-10-29T00:30:14.254Z,100.00
2023-10-29T00:32:45.017Z,100.00
2023-10-29T00:35:15.910Z,100.00
2023-10-29T00:37:46.731Z,100.00
2023-10-29T00:40:20.029Z,100.00
2023-10-29T00:42:50.738Z,100.00
2023-10-29T00:45:21.301Z,100.00
2023-10-29T00:47:52.602Z,100.00
2023-10-29T00:50:23.422Z,100.00
2023-10-29T00:52:54.204Z,100.00
2023-10-29T00:55:24.861Z,100.00
2023-10-29T00:57:57.306Z,100.00
2023-10-29T01:00:28.018Z,100.00
2023-10-29T01:02:59.862Z,100.00
2023-10-29T01:05:32.001Z,100.00
2023-10-29T01:08:02.776Z,100.00
2023-10-29T01:10:36.023Z,100.00
2023-10-29T01:13:06.686Z,100.00
2023-10-29T01:15:37.563Z,100.00
2023-10-29T01:18:08.408Z,100.00
2023-10-29T01:20:40.092Z,100.00
2023-10-29T01:23:10.942Z,100.00
2023-10-29T01:25:45.019Z,100.00
2023-10-29T01:28:15.690Z,100.00
2023-10-29T01:30:46.254Z,100.00
2023-10-29T01:33:16.851Z,100.00
2023-10-29T01:35:47.529Z,100.00
2023-10-29T01:38:18.138Z,100.00
2023-10-29T01:40:52.305Z,100.00
2023-10-29T01:43:22.847Z,100.00
2023-10-29T01:45:53.496Z,100.00
2023-10-29T01:48:25.259Z,100.00
2023-10-29T01:50:57.400Z,100.00
2023-10-29T01:53:29.341Z,100.00
2023-10-29T01:56:02.679Z,100.00
2023-10-29T01:58:33.273Z,100.00
2023-10-29T02:01:03.952Z,100.00
2023-10-29T02:03:34.656Z,100.00
2023-10-29T02:06:05.350Z,100.00
2023-10-29T02:08:37.026Z,100.00
2023-10-29T02:11:10.389Z,100.00
2023-10-29T02:13:41.153Z,100.00
2023-10-29T02:16:13.007Z,100.00
2023-10-29T02:18:43.776Z,100.00
2023-10-29T02:21:14.387Z,100.00
2023-10-29T02:23:47.617Z,100.00
2023-10-29T02:26:18.521Z,100.00
2023-10-29T02:28:49.257Z,100.00
2023-10-29T02:31:23.731Z,100.00
2023-10-29T02:33:56.020Z,100.00
2023-10-29T02:36:26.788Z,100.00
2023-10-29T02:39:00.036Z,100.00
2023-10-29T02:41:30.919Z,100.00
2023-10-29T02:44:01.650Z,100.00
2023-10-29T02:46:32.193Z,100.00
2023-10-29T02:49:02.912Z,100.00
2023-10-29T02:51:33.747Z,100.00
2023-10-29T02:54:07.278Z,100.00
2023-10-29T02:56:38.814Z,100.00
2023-10-29T02:59:11.061Z,100.00
2023-10-29T03:01:42.578Z,100.00
2023-10-29T03:04:14.168Z,100.00
2023-10-29T03:06:44.917Z,100.00
2023-10-29T03:09:18.430Z,100.00
2023-10-29T03:11:49.402Z,100.00
2023-10-29T03:14:20.394Z,100.00
2023-10-29T03:16:51.081Z,100.00
2023-10-29T03:19:22.041Z,100.00
2023-10-29T03:21:52.785Z,100.00
2023-10-29T03:24:26.232Z,100.00
2023-10-29T03:26:57.091Z,100.00
2023-10-29T03:29:28.214Z,100.00
2023-10-29T03:31:58.972Z,100.00
2023-10-29T03:34:29.692Z,100.00
2023-10-29T03:37:00.627Z,100.00
2023-10-29T03:39:34.022Z,100.00
2023-10-29T03:42:04.896Z,100.00
2023-10-29T03:44:36.667Z,100.00
2023-10-29T03:47:07.585Z,100.00
2023-10-29T03:49:38.554Z,100.00
2023-10-29T03:52:09.759Z,100.00
2023-10-29T03:54:42.933Z,100.00
2023-10-29T03:57:13.546Z,100.00
2023-10-29T03:59:44.180Z,100.00
2023-10-29T04:02:14.869Z,100.00
2023-10-29T04:04:53.572Z,100.00
2023-10-29T04:07:28.183Z,100.00
2023-10-29T04:10:02.683Z,100.00
2023-10-29T04:12:33.685Z,100.00
2023-10-29T04:15:06.434Z,100.00
2023-10-29T04:17:37.958Z,100.00
2023-10-29T04:20:09.954Z,100.00
2023-10-29T04:22:40.577Z,100.00
2023-10-29T04:25:13.887Z,100.00
2023-10-29T04:27:44.636Z,100.00
2023-10-29T04:30:16.042Z,100.00
2023-10-29T04:32:46.806Z,100.00
2023-10-29T04:35:17.642Z,100.00
2023-10-29T04:37:48.435Z,100.00
2023-10-29T04:40:21.795Z,100.00
2023-10-29T04:42:52.448Z,100.00
2023-10-29T04:45:22.967Z,100.00
2023-10-29T04:47:53.634Z,100.00
2023-10-29T04:50:24.498Z,100.00
2023-10-29T04:52:55.140Z,100.00
2023-10-29T04:55:28.621Z,100.00
2023-10-29T04:57:59.532Z,100.00
2023-10-29T05:00:31.246Z,100.00
2023-10-29T05:03:01.956Z,100.00
2023-10-29T05:05:32.618Z,100.00
2023-10-29T05:08:03.673Z,100.00
2023-10-29T05:10:37.016Z,100.00
2023-10-29T05:13:07.749Z,100.00
2023-10-29T05:15:38.292Z,100.00
2023-10-29T05:18:09.184Z,100.00
2023-10-29T05:20:40.288Z,100.00
2023-10-29T05:23:11.589Z,100.00
2023-10-29T05:25:45.763Z,100.00
2023-10-29T05:28:16.440Z,100.00
2023-10-29T05:30:47.060Z,100.00
2023-10-29T05:33:17.803Z,100.00
2023-10-29T05:35:49.077Z,100.00
2023-10-29T05:38:19.769Z,100.00
2023-10-29T05:40:52.968Z,100.00
2023-10-29T05:43:24.496Z,100.00
2023-10-29T05:45:56.113Z,100.00
2023-10-29T05:48:26.824Z,100.00
2023-10-29T05:50:57.521Z,100.00
2023-10-29T05:53:28.177Z,100.00
2023-10-29T05:56:01.433Z,100.00
2023-10-29T05:58:32.022Z,100.00
2023-10-29T06:01:02.847Z,100.00
2023-10-29T06:03:35.036Z,100.00
2023-10-29T06:06:06.033Z,100.00
2023-10-29T06:08:36.777Z,100.00
2023-10-29T06:11:11.744Z,100.00
2023-10-29T06:13:45.104Z,100.00
2023-10-29T06:16:15.908Z,100.00
2023-10-29T06:18:46.454Z,100.00
2023-10-29T06:21:17.428Z,100.00
2023-10-29T06:23:48.083Z,100.00
2023-10-29T06:26:21.268Z,100.00
2023-10-29T06:28:51.851Z,100.00
2023-10-29T06:31:22.427Z,100.00
2023-10-29T06:33:53.010Z,100.00
2023-10-29T06:36:23.512Z,100.00
2023-10-29T06:38:54.114Z,100.00
2023-10-29T06:41:27.306Z,100.00
2023-10-29T06:43:57.911Z,100.00
2023-10-29T06:46:28.512Z,100.00
2023-10-29T06:48:59.704Z,100.00
2023-10-29T06:51:30.476Z,100.00
2023-10-29T06:54:01.272Z,100.00
2023-10-29T06:56:34.559Z,100.00
2023-10-29T06:59:05.107Z,100.00
2023-10-29T07:01:35.697Z,100.00
2023-10-29T07:04:06.956Z,100.00
2023-10-29T07:06:37.604Z,100.00
2023-10-29T07:09:08.295Z,100.00
2023-10-29T07:11:41.726Z,100.00
2023-10-29T07:14:12.506Z,100.00
2023-10-29T07:16:46.781Z,100.00
2023-10-29T07:19:18.258Z,100.00
2023-10-29T07:21:48.936Z,100.00
2023-10-29T07:24:19.559Z,100.00
2023-10-29T07:26:52.878Z,100.00
2023-10-29T07:29:23.532Z,100.00
2023-10-29T07:31:54.148Z,100.00
2023-10-29T07:34:24.691Z,100.00
2023-10-29T07:36:55.331Z,100.00
2023-10-29T07:39:25.952Z,100.00
2023-10-29T07:41:59.203Z,100.00
2023-10-29T07:44:29.894Z,100.00
2023-10-29T07:47:04.421Z,100.00
2023-10-29T07:49:35.230Z,100.00
2023-10-29T07:52:05.849Z,100.00
2023-10-29T07:54:36.464Z,100.00
2023-10-29T07:57:09.744Z,100.00
2023-10-29T07:59:40.380Z,100.00
2023-10-29T08:02:11.012Z,100.00
2023-10-29T08:04:41.562Z,100.00
2023-10-29T08:07:12.157Z,100.00
2023-10-29T08:09:42.790Z,100.00
2023-10-29T08:12:15.965Z,100.00
2023-10-29T08:14:48.229Z,100.00
2023-10-29T08:17:19.006Z,100.00
2023-10-29T08:19:50.231Z,100.00
2023-10-29T08:22:20.930Z,100.00
2023-10-29T08:24:52.326Z,100.00
2023-10-29T08:27:25.738Z,100.00
2023-10-29T08:29:57.504Z,100.00
2023-10-29T08:32:28.851Z,100.00
2023-10-29T08:34:59.787Z,100.00
2023-10-29T08:37:30.415Z,100.00
2023-10-29T08:40:01.537Z,100.00
2023-10-29T08:42:35.209Z,100.00
2023-10-29T08:45:06.276Z,100.00
2023-10-29T08:47:38.203Z,100.00
2023-10-29T08:50:10.647Z,100.00
2023-10-29T08:52:41.240Z,100.00
2023-10-29T08:55:12.109Z,100.00
2023-10-29T08:57:45.272Z,100.00
2023-10-29T09:00:17.789Z,100.00
2023-10-29T09:02:48.761Z,97.64
2023-10-29T09:05:19.426Z,91.69
2023-10-29T09:07:50.025Z,97.26
2023-10-29T09:10:20.978Z,100.00
2023-10-29T09:12:54.937Z,100.00
2023-10-29T09:15:25.538Z,100.00
2023-10-29T09:17:56.667Z,100.00
2023-10-29T09:20:27.397Z,100.00
2023-10-29T09:22:58.556Z,100.00
2023-10-29T09:25:29.128Z,100.00
2023-10-29T09:28:06.384Z,100.00
2023-10-29T09:30:37.187Z,100.00
2023-10-29T09:33:09.199Z,100.00
2023-10-29T09:35:40.342Z,100.00
2023-10-29T09:38:11.082Z,100.00
2023-10-29T09:40:42.075Z,100.00
2023-10-29T09:43:19.087Z,100.00
2023-10-29T09:45:51.706Z,100.00
2023-10-29T09:48:22.353Z,100.00
2023-10-29T09:50:53.749Z,100.00
2023-10-29T09:53:26.243Z,100.00
2023-10-29T09:55:59.198Z,100.00
2023-10-29T09:58:32.476Z,100.00
2023-10-29T10:01:05.062Z,100.00
2023-10-29T10:03:37.786Z,100.00
2023-10-29T10:06:10.020Z,100.00
2023-10-29T10:08:40.744Z,100.00
2023-10-29T10:11:25.674Z,94.58
2023-10-29T10:13:58.859Z,89.07
2023-10-29T10:16:29.469Z,88.10
2023-10-29T10:19:01.317Z,90.96
2023-10-29T10:21:49.044Z,92.36
2023-10-29T10:24:20.687Z,93.62
2023-10-29T10:26:51.417Z,93.15
2023-10-29T10:29:24.604Z,89.61
2023-10-29T10:32:05.231Z,91.67
2023-10-29T10:34:39.265Z,87.95
2023-10-29T10:37:09.986Z,85.02
2023-10-29T10:39:40.788Z,81.76
2023-10-29T10:42:11.415Z,75.80
2023-10-29T10:44:46.849Z,69.13
2023-10-29T10:47:20.469Z,65.26
2023-10-29T10:49:51.721Z,64.03
2023-10-29T10:52:22.690Z,66.56
2023-10-29T10:54:54.068Z,65.52
2023-10-29T10:57:25.900Z,65.30
2023-10-29T11:00:06.791Z,63.68
2023-10-29T11:02:42.149Z,63.32
2023-10-29T11:05:15.075Z,66.00
2023-10-29T11:07:47.257Z,70.32
2023-10-29T11:10:19.433Z,70.65
2023-10-29T11:12:50.195Z,75.27
2023-10-29T11:15:24.944Z,76.44
2023-10-29T11:18:03.056Z,73.79
2023-10-29T11:21:01.416Z,69.07
2023-10-29T11:23:34.005Z,73.30
2023-10-29T11:26:24.564Z,78.05
2023-10-29T11:28:57.147Z,80.66
2023-10-29T11:31:30.489Z,96.64
2023-10-29T11:34:31.304Z,93.31
2023-10-29T11:37:02.196Z,100.00
2023-10-29T11:39:33.990Z,100.00
2023-10-29T11:42:25.558Z,95.52
2023-10-29T11:45:43.202Z,92.25
2023-10-29T11:48:22.806Z,84.68
2023-10-29T11:51:24.302Z,95.38
2023-10-29T11:53:54.900Z,87.41
2023-10-29T11:56:30.324Z,80.68
2023-10-29T11:59:10.423Z,73.79
2023-10-29T12:01:41.801Z,67.11
2023-10-29T12:04:16.121Z,61.67
2023-10-29T12:06:48.078Z,63.19
2023-10-29T12:09:19.747Z,59.16
2023-10-29T12:11:50.669Z,64.85
2023-10-29T12:14:42.459Z,63.43
2023-10-29T12:17:13.768Z,62.90
2023-10-29T12:19:48.854Z,63.53
2023-10-29T12:22:22.996Z,62.20
2023-10-29T12:24:56.626Z,63.62
2023-10-29T12:27:28.202Z,66.04
2023-10-29T12:29:58.683Z,62.23
2023-10-29T12:32:30.801Z,65.45
2023-10-29T12:35:03.911Z,64.30
2023-10-29T12:37:34.822Z,63.29
2023-10-29T12:40:06.723Z,63.49
2023-10-29T12:42:55.375Z,63.83
2023-10-29T12:45:28.636Z,62.45
2023-10-29T12:48:16.465Z,62.13
2023-10-29T12:50:57.159Z,61.80
2023-10-29T12:53:29.110Z,59.54
2023-10-29T12:56:01.716Z,58.68
2023-10-29T12:58:32.785Z,57.30
2023-10-29T13:01:03.863Z,55.05
2023-10-29T13:03:34.359Z,51.33
2023-10-29T13:06:08.133Z,53.18
2023-10-29T13:08:40.620Z,55.22
2023-10-29T13:11:11.585Z,52.77
2023-10-29T13:13:42.074Z,56.60
2023-10-29T13:16:12.782Z,55.11
2023-10-29T13:18:43.071Z,56.20
2023-10-29T13:21:16.156Z,56.38
2023-10-29T13:23:46.435Z,52.61
2023-10-29T13:26:16.797Z,51.66
2023-10-29T13:28:48.085Z,47.84
2023-10-29T13:31:18.522Z,48.33
2023-10-29T13:33:49.202Z,48.19
2023-10-29T13:36:23.778Z,49.26
2023-10-29T13:38:54.561Z,55.11
2023-10-29T13:41:26.356Z,56.20
2023-10-29T13:43:56.594Z,55.23
2023-10-29T13:46:27.111Z,55.79
2023-10-29T13:48:58.373Z,56.51
2023-10-29T13:51:31.337Z,56.25
2023-10-29T13:54:01.694Z,55.85
2023-10-29T13:56:31.994Z,56.14
2023-10-29T13:59:02.440Z,56.53
2023-10-29T14:01:32.970Z,56.00
2023-10-29T14:04:03.880Z,61.39
2023-10-29T14:06:37.243Z,55.94
2023-10-29T14:09:08.055Z,52.71
2023-10-29T14:11:38.403Z,51.65
2023-10-29T14:14:09.091Z,52.10
2023-10-29T14:16:41.423Z,52.43
2023-10-29T14:19:12.822Z,52.18
2023-10-29T14:21:51.101Z,51.69
2023-10-29T14:24:21.439Z,52.96
2023-10-29T14:26:53.421Z,53.36
2023-10-29T14:29:23.721Z,50.08
2023-10-29T14:31:54.222Z,48.27
2023-10-29T14:34:25.229Z,48.70
2023-10-29T14:36:58.045Z,46.40
2023-10-29T14:39:28.405Z,46.50
2023-10-29T14:41:59.472Z,46.31
2023-10-29T14:44:31.113Z,46.04
2023-10-29T14:47:01.379Z,47.59
2023-10-29T14:49:33.963Z,46.38
2023-10-29T14:52:08.117Z,49.31
2023-10-29T14:54:38.359Z,47.77
2023-10-29T14:57:26.057Z,47.58
2023-10-29T14:59:59.389Z,47.42
2023-10-29T15:02:30.122Z,49.61
2023-10-29T15:05:00.635Z,48.88
2023-10-29T15:07:33.544Z,49.19
2023-10-29T15:10:05.343Z,49.99
2023-10-29T15:12:36.480Z,51.33
2023-10-29T15:15:18.523Z,53.92
2023-10-29T15:17:57.302Z,54.50
2023-10-29T15:20:28.198Z,55.50
2023-10-29T15:23:02.874Z,57.68
2023-10-29T15:25:33.304Z,57.33
2023-10-29T15:28:03.563Z,57.88
2023-10-29T15:30:33.803Z,59.97
2023-10-29T15:33:04.173Z,59.32
2023-10-29T15:35:38.163Z,63.72
2023-10-29T15:38:11.195Z,61.62
2023-10-29T15:40:41.517Z,63.29
2023-10-29T15:43:11.717Z,67.63
2023-10-29T15:45:45.075Z,63.42
2023-10-29T15:48:15.680Z,61.29
2023-10-29T15:50:52.480Z,62.85
2023-10-29T15:53:25.645Z,62.86
2023-10-29T15:55:55.979Z,62.17
2023-10-29T15:58:26.461Z,62.13
2023-10-29T16:00:56.889Z,64.30
2023-10-29T16:03:27.544Z,62.30
2023-10-29T16:05:57.878Z,61.00
2023-10-29T16:08:31.231Z,61.61
2023-10-29T16:11:01.514Z,62.29
2023-10-29T16:13:31.757Z,61.68
2023-10-29T16:16:02.047Z,61.08
2023-10-29T16:18:33.144Z,61.75
2023-10-29T16:21:03.910Z,61.26
2023-10-29T16:23:36.999Z,60.72
2023-10-29T16:26:07.554Z,64.93
2023-10-29T16:28:37.842Z,62.94
2023-10-29T16:31:08.459Z,66.45
2023-10-29T16:33:38.864Z,67.50
2023-10-29T16:36:10.325Z,63.14
2023-10-29T16:38:43.204Z,63.27
2023-10-29T16:41:18.059Z,65.13
2023-10-29T16:43:50.968Z,62.88
2023-10-29T16:46:21.580Z,63.77
2023-10-29T16:48:52.096Z,65.81
2023-10-29T16:51:22.586Z,64.96
2023-10-29T16:53:56.580Z,72.24
2023-10-29T16:56:26.933Z,68.07
2023-10-29T16:58:57.243Z,68.97
2023-10-29T17:01:27.516Z,76.54
2023-10-29T17:03:57.890Z,69.85
2023-10-29T17:06:28.204Z,71.96
2023-10-29T17:09:01.368Z,67.89
2023-10-29T17:11:32.968Z,70.86
2023-10-29T17:14:04.051Z,72.37
2023-10-29T17:16:34.630Z,78.35
2023-10-29T17:19:05.498Z,75.95
2023-10-29T17:21:35.804Z,69.68
2023-10-29T17:24:10.832Z,81.81
2023-10-29T17:26:41.119Z,93.47
2023-10-29T17:29:12.023Z,95.48
2023-10-29T17:31:42.326Z,100.00
2023-10-29T17:34:12.600Z,100.00
2023-10-29T17:36:42.904Z,100.00
2023-10-29T17:39:17.546Z,100.00
2023-10-29T17:41:47.792Z,100.00
2023-10-29T17:44:18.062Z,100.00
2023-10-29T17:46:48.411Z,100.00
2023-10-29T17:49:19.308Z,100.00
2023-10-29T17:51:49.600Z,100.00
2023-10-29T17:54:22.716Z,100.00
2023-10-29T17:56:53.123Z,100.00
2023-10-29T17:59:26.864Z,100.00
2023-10-29T18:01:57.173Z,100.00
2023-10-29T18:04:27.506Z,100.00
2023-10-29T18:07:00.226Z,100.00
2023-10-29T18:09:33.545Z,100.00
2023-10-29T18:12:03.947Z,100.00
2023-10-29T18:14:34.557Z,100.00
2023-10-29T18:17:04.863Z,100.00
2023-10-29T18:19:35.087Z,100.00
2023-10-29T18:22:06.787Z,100.00
2023-10-29T18:24:39.803Z,100.00
2023-10-29T18:27:11.241Z,100.00
2023-10-29T18:29:41.521Z,100.00
2023-10-29T18:32:11.953Z,100.00
2023-10-29T18:34:43.693Z,100.00
2023-10-29T18:37:14.016Z,100.00
2023-10-29T18:39:46.998Z,100.00
2023-10-29T18:42:17.616Z,100.00
2023-10-29T18:44:48.003Z,100.00
2023-10-29T18:47:22.596Z,100.00
2023-10-29T18:49:53.271Z,100.00
2023-10-29T18:52:23.647Z,100.00
2023-10-29T18:54:57.010Z,100.00
2023-10-29T18:57:27.548Z,100.00
2023-10-29T18:59:57.925Z,100.00
2023-10-29T19:02:28.239Z,100.00
2023-10-29T19:04:58.736Z,100.00
2023-10-29T19:07:28.998Z,100.00
2023-10-29T19:10:01.811Z,100.00
2023-10-29T19:12:32.154Z,100.00
2023-10-29T19:15:02.625Z,100.00
2023-10-29T19:17:33.254Z,100.00
2023-10-29T19:20:06.700Z,100.00
2023-10-29T19:22:37.102Z,100.00
2023-10-29T19:25:11.803Z,100.00
2023-10-29T19:27:42.264Z,100.00
2023-10-29T19:30:14.280Z,100.00
2023-10-29T19:32:45.052Z,100.00
2023-10-29T19:35:15.657Z,100.00
2023-10-29T19:37:46.375Z,100.00
2023-10-29T19:40:19.500Z,100.00
2023-10-29T19:42:49.693Z,100.00
2023-10-29T19:45:20.578Z,100.00
2023-10-29T19:47:51.002Z,100.00
2023-10-29T19:50:21.571Z,100.00
2023-10-29T19:52:51.889Z,100.00
2023-10-29T19:55:24.718Z,100.00
2023-10-29T19:57:54.928Z,100.00
2023-10-29T20:00:25.188Z,100.00
2023-10-29T20:02:55.545Z,100.00
2023-10-29T20:05:26.117Z,100.00
2023-10-29T20:07:56.396Z,100.00
2023-10-29T20:10:29.297Z,100.00
2023-10-29T20:13:00.339Z,100.00
2023-10-29T20:15:34.115Z,100.00
2023-10-29T20:18:06.741Z,100.00
2023-10-29T20:20:39.127Z,100.00
2023-10-29T20:23:09.788Z,100.00
2023-10-29T20:25:42.949Z,100.00
2023-10-29T20:28:13.534Z,100.00
2023-10-29T20:30:44.098Z,100.00
2023-10-29T20:33:14.976Z,100.00
2023-10-29T20:35:45.655Z,100.00
2023-10-29T20:38:16.186Z,100.00
2023-10-29T20:40:49.406Z,100.00
2023-10-29T20:43:20.027Z,100.00
2023-10-29T20:45:55.746Z,100.00
2023-10-29T20:48:26.451Z,100.00
2023-10-29T20:50:57.376Z,100.00
2023-10-29T20:53:28.612Z,100.00
2023-10-29T20:56:08.099Z,100.00
2023-10-29T20:58:38.862Z,100.00
2023-10-29T21:01:09.462Z,100.00
2023-10-29T21:03:40.273Z,100.00
2023-10-29T21:06:13.023Z,100.00
2023-10-29T21:08:46.041Z,100.00
2023-10-29T21:11:20.123Z,100.00
2023-10-29T21:13:50.862Z,100.00
2023-10-29T21:16:22.744Z,100.00
2023-10-29T21:18:56.228Z,100.00
2023-10-29T21:21:27.444Z,100.00
2023-10-29T21:23:58.276Z,100.00
2023-10-29T21:26:31.935Z,100.00
2023-10-29T21:29:02.619Z,100.00
2023-10-29T21:31:33.132Z,100.00
2023-10-29T21:34:03.756Z,100.00
2023-10-29T21:36:34.372Z,100.00
2023-10-29T21:39:06.303Z,100.00
2023-10-29T21:41:39.519Z,100.00
2023-10-29T21:44:10.419Z,100.00
2023-10-29T21:46:41.088Z,100.00
2023-10-29T21:49:11.845Z,100.00
2023-10-29T21:51:42.368Z,100.00
2023-10-29T21:54:13.043Z,100.00
2023-10-29T21:56:46.212Z,100.00
2023-10-29T21:59:16.804Z,100.00
2023-10-29T22:01:51.655Z,100.00
2023-10-29T22:04:22.346Z,100.00
2023-10-29T22:06:52.979Z,100.00
2023-10-29T22:09:23.715Z,100.00
2023-10-29T22:11:56.897Z,100.00
2023-10-29T22:14:27.496Z,100.00
2023-10-29T22:16:58.210Z,100.00
2023-10-29T22:19:29.006Z,100.00
2023-10-29T22:22:00.646Z,100.00
2023-10-29T22:24:31.324Z,100.00
2023-10-29T22:27:04.651Z,100.00
2023-10-29T22:29:35.282Z,100.00
2023-10-29T22:32:06.080Z,100.00
2023-10-29T22:34:36.613Z,100.00
2023-10-29T22:37:07.498Z,100.00
2023-10-29T22:39:38.099Z,100.00
2023-10-29T22:42:11.416Z,100.00
2023-10-29T22:44:42.030Z,100.00
2023-10-29T22:47:12.598Z,100.00
2023-10-29T22:49:43.332Z,100.00
2023-10-29T22:52:15.345Z,100.00
2023-10-29T22:54:45.956Z,100.00
2023-10-29T22:57:19.458Z,100.00
2023-10-29T22:59:53.653Z,100.00
2023-10-29T23:02:26.632Z,100.00
2023-10-29T23:04:57.897Z,100.00
2023-10-29T23:07:29.087Z,100.00
2023-10-29T23:10:00.118Z,100.00
2023-10-29T23:12:33.388Z,100.00
2023-10-29T23:15:04.068Z,100.00
2023-10-29T23:17:34.871Z,100.00
2023-10-29T23:20:05.429Z,100.00
2023-10-29T23:22:36.228Z,100.00
2023-10-29T23:25:07.326Z,100.00
2023-10-29T23:27:40.711Z,100.00
2023-10-29T23:30:12.259Z,100.00
2023-10-29T23:32:43.183Z,100.00
2023-10-29T23:35:13.901Z,100.00
2023-10-29T23:37:44.847Z,100.00
2023-10-29T23:40:16.794Z,100.00
2023-10-29T23:42:50.302Z,100.00
2023-10-29T23:45:21.029Z,100.00
2023-10-29T23:47:51.792Z,100.00
2023-10-29T23:50:22.429Z,100.00
2023-10-29T23:52:53.095Z,100.00
2023-10-29T23:55:23.717Z,100.00
2023-10-29T23:57:57.071Z,100.00
